sensor_id;sensor_type;location;lat;lon;timestamp;P1;durP1;ratioP1;P2;durP2;ratioP2
41875;SDS011;27555;50.808;4.402;2023-08-21T00:15:19;9.52;;;1.65;;
41875;SDS011;27555;50.808;4.402;2023-08-21T00:17:44;6.65;;;1.80;;
41875;SDS011;27555;50.808;4.402;2023-08-21T00:20:10;6.82;;;1.67;;
41875;SDS011;27555;50.808;4.402;2023-08-21T00:22:36;4.35;;;1.45;;
41875;SDS011;27555;50.808;4.402;2023-08-21T00:25:02;9.40;;;1.95;;
41875;SDS011;27555;50.808;4.402;2023-08-21T00:27:29;4.25;;;1.10;;
41875;SDS011;27555;50.808;4.402;2023-08-21T00:29:55;10.95;;;1.80;;
41875;SDS011;27555;50.808;4.402;2023-08-21T00:32:20;8.25;;;1.92;;
41875;SDS011;27555;50.808;4.402;2023-08-21T00:34:46;6.95;;;1.70;;
41875;SDS011;27555;50.808;4.402;2023-08-21T00:37:11;7.82;;;1.10;;
41875;SDS011;27555;50.808;4.402;2023-08-21T00:39:37;4.78;;;1.17;;
41875;SDS011;27555;50.808;4.402;2023-08-21T00:42:03;7.85;;;1.08;;
41875;SDS011;27555;50.808;4.402;2023-08-21T00:44:28;11.52;;;2.42;;
41875;SDS011;27555;50.808;4.402;2023-08-21T00:46:54;7.10;;;1.83;;
41875;SDS011;27555;50.808;4.402;2023-08-21T00:49:20;5.80;;;1.60;;
41875;SDS011;27555;50.808;4.402;2023-08-21T00:51:46;8.20;;;2.13;;
41875;SDS011;27555;50.808;4.402;2023-08-21T00:54:13;7.68;;;1.58;;
41875;SDS011;27555;50.808;4.402;2023-08-21T00:56:39;8.40;;;1.52;;
41875;SDS011;27555;50.808;4.402;2023-08-21T00:59:05;5.80;;;1.65;;
41875;SDS011;27555;50.808;4.402;2023-08-21T01:01:31;8.07;;;1.88;;
41875;SDS011;27555;50.808;4.402;2023-08-21T01:03:58;10.32;;;1.67;;
41875;SDS011;27555;50.808;4.402;2023-08-21T01:06:23;10.98;;;1.65;;
41875;SDS011;27555;50.808;4.402;2023-08-21T01:14:27;8.07;;;1.40;;
41875;SDS011;27555;50.808;4.402;2023-08-21T01:16:59;9.95;;;1.83;;
41875;SDS011;27555;50.808;4.402;2023-08-21T01:19:35;5.03;;;1.42;;
41875;SDS011;27555;50.808;4.402;2023-08-21T01:22:02;9.60;;;1.48;;
41875;SDS011;27555;50.808;4.402;2023-08-21T01:24:27;6.45;;;1.35;;
41875;SDS011;27555;50.808;4.402;2023-08-21T01:26:53;8.23;;;1.40;;
41875;SDS011;27555;50.808;4.402;2023-08-21T01:29:19;7.03;;;1.55;;
41875;SDS011;27555;50.808;4.402;2023-08-21T01:31:46;5.28;;;1.17;;
41875;SDS011;27555;50.808;4.402;2023-08-21T01:34:16;8.57;;;1.10;;
41875;SDS011;27555;50.808;4.402;2023-08-21T01:36:42;8.40;;;1.42;;
41875;SDS011;27555;50.808;4.402;2023-08-21T01:39:09;4.55;;;1.02;;
41875;SDS011;27555;50.808;4.402;2023-08-21T01:41:35;6.07;;;1.52;;
41875;SDS011;27555;50.808;4.402;2023-08-21T01:44:01;7.88;;;1.88;;
41875;SDS011;27555;50.808;4.402;2023-08-21T01:46:26;6.05;;;1.88;;
41875;SDS011;27555;50.808;4.402;2023-08-21T01:48:52;6.05;;;1.63;;
41875;SDS011;27555;50.808;4.402;2023-08-21T01:51:18;6.03;;;1.30;;
41875;SDS011;27555;50.808;4.402;2023-08-21T01:53:43;5.50;;;1.70;;
41875;SDS011;27555;50.808;4.402;2023-08-21T01:56:09;11.00;;;1.90;;
41875;SDS011;27555;50.808;4.402;2023-08-21T01:58:35;4.65;;;1.83;;
41875;SDS011;27555;50.808;4.402;2023-08-21T02:01:00;3.97;;;1.30;;
41875;SDS011;27555;50.808;4.402;2023-08-21T02:03:26;10.23;;;1.63;;
41875;SDS011;27555;50.808;4.402;2023-08-21T02:05:54;5.20;;;1.25;;
41875;SDS011;27555;50.808;4.402;2023-08-21T02:08:22;4.82;;;1.17;;
41875;SDS011;27555;50.808;4.402;2023-08-21T02:10:50;7.90;;;1.77;;
41875;SDS011;27555;50.808;4.402;2023-08-21T02:13:17;7.32;;;1.25;;
41875;SDS011;27555;50.808;4.402;2023-08-21T02:15:44;8.65;;;1.48;;
41875;SDS011;27555;50.808;4.402;2023-08-21T02:18:09;7.13;;;1.58;;
41875;SDS011;27555;50.808;4.402;2023-08-21T02:20:35;8.05;;;1.92;;
41875;SDS011;27555;50.808;4.402;2023-08-21T02:23:01;7.05;;;1.48;;
41875;SDS011;27555;50.808;4.402;2023-08-21T02:25:26;4.47;;;1.27;;
41875;SDS011;27555;50.808;4.402;2023-08-21T02:27:52;7.65;;;1.60;;
41875;SDS011;27555;50.808;4.402;2023-08-21T02:30:17;5.22;;;1.55;;
41875;SDS011;27555;50.808;4.402;2023-08-21T02:32:43;5.90;;;1.38;;
41875;SDS011;27555;50.808;4.402;2023-08-21T02:35:09;6.93;;;1.40;;
41875;SDS011;27555;50.808;4.402;2023-08-21T02:37:34;4.55;;;1.30;;
41875;SDS011;27555;50.808;4.402;2023-08-21T02:40:04;7.68;;;1.95;;
41875;SDS011;27555;50.808;4.402;2023-08-21T02:42:33;13.40;;;2.28;;
41875;SDS011;27555;50.808;4.402;2023-08-21T02:44:58;7.70;;;1.65;;
41875;SDS011;27555;50.808;4.402;2023-08-21T02:47:24;4.22;;;1.05;;
41875;SDS011;27555;50.808;4.402;2023-08-21T02:49:49;5.53;;;1.65;;
41875;SDS011;27555;50.808;4.402;2023-08-21T02:52:15;6.88;;;1.38;;
41875;SDS011;27555;50.808;4.402;2023-08-21T02:54:42;6.03;;;1.30;;
41875;SDS011;27555;50.808;4.402;2023-08-21T02:57:08;7.75;;;1.92;;
41875;SDS011;27555;50.808;4.402;2023-08-21T02:59:33;4.63;;;1.40;;
41875;SDS011;27555;50.808;4.402;2023-08-21T03:01:59;7.18;;;1.27;;
41875;SDS011;27555;50.808;4.402;2023-08-21T03:04:24;6.43;;;1.63;;
41875;SDS011;27555;50.808;4.402;2023-08-21T03:06:50;6.45;;;1.55;;
41875;SDS011;27555;50.808;4.402;2023-08-21T03:09:16;8.40;;;1.70;;
41875;SDS011;27555;50.808;4.402;2023-08-21T03:11:41;3.72;;;1.27;;
41875;SDS011;27555;50.808;4.402;2023-08-21T03:14:07;8.18;;;1.77;;
41875;SDS011;27555;50.808;4.402;2023-08-21T03:16:33;4.55;;;1.33;;
41875;SDS011;27555;50.808;4.402;2023-08-21T03:18:59;5.57;;;1.33;;
41875;SDS011;27555;50.808;4.402;2023-08-21T03:21:25;7.60;;;1.77;;
41875;SDS011;27555;50.808;4.402;2023-08-21T03:23:56;4.88;;;1.20;;
41875;SDS011;27555;50.808;4.402;2023-08-21T03:26:23;8.02;;;1.70;;
41875;SDS011;27555;50.808;4.402;2023-08-21T03:28:48;9.60;;;1.63;;
41875;SDS011;27555;50.808;4.402;2023-08-21T03:31:14;9.10;;;1.88;;
41875;SDS011;27555;50.808;4.402;2023-08-21T03:33:40;9.40;;;1.58;;
41875;SDS011;27555;50.808;4.402;2023-08-21T03:36:06;5.20;;;1.63;;
41875;SDS011;27555;50.808;4.402;2023-08-21T03:38:32;8.73;;;1.85;;
41875;SDS011;27555;50.808;4.402;2023-08-21T03:40:58;9.07;;;1.48;;
41875;SDS011;27555;50.808;4.402;2023-08-21T03:43:24;12.15;;;1.92;;
41875;SDS011;27555;50.808;4.402;2023-08-21T03:45:50;5.38;;;1.48;;
41875;SDS011;27555;50.808;4.402;2023-08-21T03:48:16;5.20;;;1.95;;
41875;SDS011;27555;50.808;4.402;2023-08-21T03:50:41;7.95;;;1.38;;
41875;SDS011;27555;50.808;4.402;2023-08-21T03:53:07;6.40;;;1.77;;
41875;SDS011;27555;50.808;4.402;2023-08-21T03:55:33;6.30;;;1.23;;
41875;SDS011;27555;50.808;4.402;2023-08-21T03:57:59;5.43;;;1.15;;
41875;SDS011;27555;50.808;4.402;2023-08-21T04:00:26;7.38;;;1.55;;
41875;SDS011;27555;50.808;4.402;2023-08-21T04:02:51;6.30;;;1.58;;
41875;SDS011;27555;50.808;4.402;2023-08-21T04:05:17;9.05;;;1.45;;
41875;SDS011;27555;50.808;4.402;2023-08-21T04:07:43;13.35;;;2.58;;
41875;SDS011;27555;50.808;4.402;2023-08-21T04:10:08;9.57;;;2.03;;
41875;SDS011;27555;50.808;4.402;2023-08-21T04:12:34;8.93;;;1.52;;
41875;SDS011;27555;50.808;4.402;2023-08-21T04:15:00;4.45;;;1.48;;
41875;SDS011;27555;50.808;4.402;2023-08-21T04:17:25;13.00;;;1.77;;
41875;SDS011;27555;50.808;4.402;2023-08-21T04:19:51;5.18;;;1.70;;
41875;SDS011;27555;50.808;4.402;2023-08-21T04:22:17;6.32;;;1.85;;
41875;SDS011;27555;50.808;4.402;2023-08-21T04:24:42;5.03;;;1.58;;
41875;SDS011;27555;50.808;4.402;2023-08-21T04:27:08;7.35;;;1.38;;
41875;SDS011;27555;50.808;4.402;2023-08-21T04:29:37;4.65;;;1.60;;
41875;SDS011;27555;50.808;4.402;2023-08-21T04:32:04;5.72;;;1.48;;
41875;SDS011;27555;50.808;4.402;2023-08-21T04:34:31;6.20;;;1.60;;
41875;SDS011;27555;50.808;4.402;2023-08-21T04:36:57;11.00;;;1.95;;
41875;SDS011;27555;50.808;4.402;2023-08-21T04:39:23;5.88;;;1.80;;
41875;SDS011;27555;50.808;4.402;2023-08-21T04:41:50;11.93;;;1.63;;
41875;SDS011;27555;50.808;4.402;2023-08-21T04:44:17;6.47;;;1.85;;
41875;SDS011;27555;50.808;4.402;2023-08-21T04:46:43;5.60;;;1.48;;
41875;SDS011;27555;50.808;4.402;2023-08-21T04:49:12;6.65;;;1.55;;
41875;SDS011;27555;50.808;4.402;2023-08-21T04:51:38;4.57;;;1.35;;
41875;SDS011;27555;50.808;4.402;2023-08-21T04:54:03;7.40;;;2.17;;
41875;SDS011;27555;50.808;4.402;2023-08-21T04:56:29;8.93;;;1.75;;
41875;SDS011;27555;50.808;4.402;2023-08-21T04:58:55;8.48;;;1.63;;
41875;SDS011;27555;50.808;4.402;2023-08-21T05:01:20;9.88;;;1.88;;
41875;SDS011;27555;50.808;4.402;2023-08-21T05:03:46;7.78;;;1.85;;
41875;SDS011;27555;50.808;4.402;2023-08-21T05:06:11;4.90;;;1.50;;
41875;SDS011;27555;50.808;4.402;2023-08-21T05:08:37;7.22;;;1.60;;
41875;SDS011;27555;50.808;4.402;2023-08-21T05:11:03;6.78;;;1.60;;
41875;SDS011;27555;50.808;4.402;2023-08-21T05:13:28;9.88;;;2.25;;
41875;SDS011;27555;50.808;4.402;2023-08-21T05:15:54;7.63;;;1.90;;
41875;SDS011;27555;50.808;4.402;2023-08-21T05:18:21;11.68;;;1.58;;
41875;SDS011;27555;50.808;4.402;2023-08-21T05:20:48;6.15;;;1.60;;
41875;SDS011;27555;50.808;4.402;2023-08-21T05:23:14;7.57;;;2.10;;
41875;SDS011;27555;50.808;4.402;2023-08-21T05:25:40;8.95;;;2.08;;
41875;SDS011;27555;50.808;4.402;2023-08-21T05:28:06;7.22;;;1.55;;
41875;SDS011;27555;50.808;4.402;2023-08-21T05:30:32;8.70;;;1.90;;
41875;SDS011;27555;50.808;4.402;2023-08-21T05:33:00;9.15;;;3.08;;
41875;SDS011;27555;50.808;4.402;2023-08-21T05:35:26;8.52;;;1.98;;
41875;SDS011;27555;50.808;4.402;2023-08-21T05:37:52;12.57;;;2.05;;
41875;SDS011;27555;50.808;4.402;2023-08-21T05:40:17;8.95;;;2.25;;
41875;SDS011;27555;50.808;4.402;2023-08-21T05:42:43;14.63;;;2.70;;
41875;SDS011;27555;50.808;4.402;2023-08-21T05:45:10;8.73;;;2.08;;
41875;SDS011;27555;50.808;4.402;2023-08-21T05:47:35;11.30;;;1.98;;
41875;SDS011;27555;50.808;4.402;2023-08-21T05:50:01;8.65;;;1.95;;
41875;SDS011;27555;50.808;4.402;2023-08-21T05:52:27;13.13;;;2.55;;
41875;SDS011;27555;50.808;4.402;2023-08-21T05:54:53;8.18;;;1.85;;
41875;SDS011;27555;50.808;4.402;2023-08-21T05:57:18;6.38;;;1.73;;
41875;SDS011;27555;50.808;4.402;2023-08-21T05:59:44;7.72;;;1.85;;
41875;SDS011;27555;50.808;4.402;2023-08-21T06:02:11;9.75;;;1.83;;
41875;SDS011;27555;50.808;4.402;2023-08-21T06:04:39;6.47;;;1.65;;
41875;SDS011;27555;50.808;4.402;2023-08-21T06:07:05;6.70;;;1.40;;
41875;SDS011;27555;50.808;4.402;2023-08-21T06:09:31;9.27;;;2.47;;
41875;SDS011;27555;50.808;4.402;2023-08-21T06:11:59;10.48;;;2.50;;
41875;SDS011;27555;50.808;4.402;2023-08-21T06:14:26;11.45;;;1.98;;
41875;SDS011;27555;50.808;4.402;2023-08-21T06:17:00;7.35;;;1.70;;
41875;SDS011;27555;50.808;4.402;2023-08-21T06:19:27;12.85;;;2.30;;
41875;SDS011;27555;50.808;4.402;2023-08-21T06:21:54;9.73;;;2.45;;
41875;SDS011;27555;50.808;4.402;2023-08-21T06:24:20;11.40;;;2.65;;
41875;SDS011;27555;50.808;4.402;2023-08-21T06:26:45;4.93;;;2.00;;
41875;SDS011;27555;50.808;4.402;2023-08-21T06:29:11;7.72;;;1.77;;
41875;SDS011;27555;50.808;4.402;2023-08-21T06:31:37;12.13;;;2.72;;
41875;SDS011;27555;50.808;4.402;2023-08-21T06:34:02;23.67;;;2.67;;
41875;SDS011;27555;50.808;4.402;2023-08-21T06:36:28;8.38;;;2.17;;
41875;SDS011;27555;50.808;4.402;2023-08-21T06:38:55;10.52;;;2.15;;
41875;SDS011;27555;50.808;4.402;2023-08-21T06:41:21;13.50;;;1.98;;
41875;SDS011;27555;50.808;4.402;2023-08-21T06:43:46;13.20;;;2.45;;
41875;SDS011;27555;50.808;4.402;2023-08-21T06:46:12;8.73;;;2.00;;
41875;SDS011;27555;50.808;4.402;2023-08-21T06:48:39;8.18;;;2.10;;
41875;SDS011;27555;50.808;4.402;2023-08-21T06:51:08;11.00;;;2.47;;
41875;SDS011;27555;50.808;4.402;2023-08-21T06:53:34;11.50;;;2.50;;
41875;SDS011;27555;50.808;4.402;2023-08-21T06:56:00;9.23;;;2.83;;
41875;SDS011;27555;50.808;4.402;2023-08-21T06:58:26;12.77;;;2.28;;
41875;SDS011;27555;50.808;4.402;2023-08-21T07:00:53;14.05;;;2.83;;
41875;SDS011;27555;50.808;4.402;2023-08-21T07:03:19;15.60;;;2.38;;
41875;SDS011;27555;50.808;4.402;2023-08-21T07:05:54;11.57;;;3.90;;
41875;SDS011;27555;50.808;4.402;2023-08-21T07:08:21;13.75;;;2.10;;
41875;SDS011;27555;50.808;4.402;2023-08-21T07:10:47;7.97;;;2.55;;
41875;SDS011;27555;50.808;4.402;2023-08-21T07:13:13;14.32;;;3.47;;
41875;SDS011;27555;50.808;4.402;2023-08-21T07:15:39;13.18;;;2.60;;
41875;SDS011;27555;50.808;4.402;2023-08-21T07:18:04;12.48;;;2.55;;
41875;SDS011;27555;50.808;4.402;2023-08-21T07:20:30;15.02;;;2.90;;
41875;SDS011;27555;50.808;4.402;2023-08-21T07:22:56;15.35;;;3.03;;
41875;SDS011;27555;50.808;4.402;2023-08-21T07:25:21;11.48;;;3.17;;
41875;SDS011;27555;50.808;4.402;2023-08-21T07:27:47;15.10;;;3.25;;
41875;SDS011;27555;50.808;4.402;2023-08-21T07:30:16;15.35;;;3.05;;
41875;SDS011;27555;50.808;4.402;2023-08-21T07:32:42;19.38;;;3.17;;
41875;SDS011;27555;50.808;4.402;2023-08-21T07:35:08;13.60;;;2.55;;
41875;SDS011;27555;50.808;4.402;2023-08-21T07:37:35;14.05;;;3.25;;
41875;SDS011;27555;50.808;4.402;2023-08-21T07:40:01;14.93;;;3.30;;
41875;SDS011;27555;50.808;4.402;2023-08-21T07:42:27;13.98;;;3.33;;
41875;SDS011;27555;50.808;4.402;2023-08-21T07:44:52;13.32;;;2.65;;
41875;SDS011;27555;50.808;4.402;2023-08-21T07:47:19;15.43;;;3.08;;
41875;SDS011;27555;50.808;4.402;2023-08-21T07:49:44;11.80;;;3.28;;
41875;SDS011;27555;50.808;4.402;2023-08-21T07:52:10;15.27;;;3.35;;
41875;SDS011;27555;50.808;4.402;2023-08-21T07:54:35;18.50;;;4.00;;
41875;SDS011;27555;50.808;4.402;2023-08-21T07:57:01;10.27;;;2.72;;
41875;SDS011;27555;50.808;4.402;2023-08-21T07:59:29;10.07;;;3.60;;
41875;SDS011;27555;50.808;4.402;2023-08-21T08:01:54;15.10;;;3.47;;
41875;SDS011;27555;50.808;4.402;2023-08-21T08:04:21;11.13;;;3.35;;
41875;SDS011;27555;50.808;4.402;2023-08-21T08:06:47;10.73;;;3.20;;
41875;SDS011;27555;50.808;4.402;2023-08-21T08:09:13;13.13;;;2.63;;
41875;SDS011;27555;50.808;4.402;2023-08-21T08:11:38;16.00;;;3.00;;
41875;SDS011;27555;50.808;4.402;2023-08-21T08:14:04;18.60;;;3.90;;
41875;SDS011;27555;50.808;4.402;2023-08-21T08:16:30;11.40;;;2.85;;
41875;SDS011;27555;50.808;4.402;2023-08-21T08:18:56;10.82;;;2.60;;
41875;SDS011;27555;50.808;4.402;2023-08-21T08:21:23;13.75;;;3.30;;
41875;SDS011;27555;50.808;4.402;2023-08-21T08:23:49;9.57;;;2.38;;
41875;SDS011;27555;50.808;4.402;2023-08-21T08:26:14;12.63;;;3.13;;
41875;SDS011;27555;50.808;4.402;2023-08-21T08:28:41;10.23;;;2.95;;
41875;SDS011;27555;50.808;4.402;2023-08-21T08:31:13;12.88;;;2.53;;
41875;SDS011;27555;50.808;4.402;2023-08-21T08:33:40;25.70;;;3.03;;
41875;SDS011;27555;50.808;4.402;2023-08-21T08:36:06;14.43;;;2.55;;
41875;SDS011;27555;50.808;4.402;2023-08-21T08:38:33;9.13;;;2.13;;
41875;SDS011;27555;50.808;4.402;2023-08-21T08:40:58;6.95;;;2.10;;
41875;SDS011;27555;50.808;4.402;2023-08-21T08:43:27;7.30;;;2.15;;
41875;SDS011;27555;50.808;4.402;2023-08-21T08:45:54;8.00;;;2.20;;
41875;SDS011;27555;50.808;4.402;2023-08-21T08:48:22;12.35;;;2.63;;
41875;SDS011;27555;50.808;4.402;2023-08-21T08:50:48;10.93;;;2.40;;
41875;SDS011;27555;50.808;4.402;2023-08-21T08:53:16;10.95;;;2.35;;
41875;SDS011;27555;50.808;4.402;2023-08-21T08:55:43;9.68;;;2.10;;
41875;SDS011;27555;50.808;4.402;2023-08-21T08:58:10;7.13;;;1.55;;
41875;SDS011;27555;50.808;4.402;2023-08-21T09:00:36;9.32;;;2.10;;
41875;SDS011;27555;50.808;4.402;2023-08-21T09:03:03;10.52;;;1.80;;
41875;SDS011;27555;50.808;4.402;2023-08-21T09:05:29;8.48;;;2.00;;
41875;SDS011;27555;50.808;4.402;2023-08-21T09:08:03;4.80;;;1.27;;
41875;SDS011;27555;50.808;4.402;2023-08-21T09:10:32;9.05;;;1.52;;
41875;SDS011;27555;50.808;4.402;2023-08-21T09:12:57;7.95;;;1.95;;
41875;SDS011;27555;50.808;4.402;2023-08-21T09:15:29;7.25;;;1.75;;
41875;SDS011;27555;50.808;4.402;2023-08-21T09:17:55;12.02;;;2.17;;
41875;SDS011;27555;50.808;4.402;2023-08-21T09:20:21;11.98;;;2.00;;
41875;SDS011;27555;50.808;4.402;2023-08-21T09:22:53;7.65;;;1.63;;
41875;SDS011;27555;50.808;4.402;2023-08-21T09:25:22;9.50;;;2.63;;
41875;SDS011;27555;50.808;4.402;2023-08-21T09:30:18;8.30;;;2.23;;
41875;SDS011;27555;50.808;4.402;2023-08-21T09:32:54;8.13;;;1.90;;
41875;SDS011;27555;50.808;4.402;2023-08-21T09:35:22;14.27;;;2.30;;
41875;SDS011;27555;50.808;4.402;2023-08-21T09:37:49;5.15;;;1.58;;
41875;SDS011;27555;50.808;4.402;2023-08-21T09:40:18;6.85;;;1.90;;
41875;SDS011;27555;50.808;4.402;2023-08-21T09:42:43;4.93;;;1.40;;
41875;SDS011;27555;50.808;4.402;2023-08-21T09:45:10;5.68;;;1.70;;
41875;SDS011;27555;50.808;4.402;2023-08-21T09:47:36;8.90;;;2.13;;
41875;SDS011;27555;50.808;4.402;2023-08-21T09:50:06;11.80;;;2.42;;
41875;SDS011;27555;50.808;4.402;2023-08-21T09:52:32;9.77;;;2.72;;
41875;SDS011;27555;50.808;4.402;2023-08-21T09:54:59;10.85;;;2.28;;
41875;SDS011;27555;50.808;4.402;2023-08-21T09:57:28;5.85;;;1.70;;
41875;SDS011;27555;50.808;4.402;2023-08-21T09:59:54;8.25;;;2.10;;
41875;SDS011;27555;50.808;4.402;2023-08-21T10:02:20;7.55;;;1.95;;
41875;SDS011;27555;50.808;4.402;2023-08-21T10:04:48;5.43;;;1.90;;
41875;SDS011;27555;50.808;4.402;2023-08-21T10:07:18;8.10;;;2.03;;
41875;SDS011;27555;50.808;4.402;2023-08-21T10:09:49;7.07;;;2.38;;
41875;SDS011;27555;50.808;4.402;2023-08-21T10:12:16;7.28;;;1.60;;
41875;SDS011;27555;50.808;4.402;2023-08-21T10:14:44;7.00;;;1.55;;
41875;SDS011;27555;50.808;4.402;2023-08-21T10:17:10;11.93;;;2.63;;
41875;SDS011;27555;50.808;4.402;2023-08-21T10:19:35;4.05;;;1.33;;
41875;SDS011;27555;50.808;4.402;2023-08-21T10:22:01;9.40;;;2.58;;
41875;SDS011;27555;50.808;4.402;2023-08-21T10:24:32;8.70;;;1.70;;
41875;SDS011;27555;50.808;4.402;2023-08-21T10:27:00;6.07;;;2.28;;
41875;SDS011;27555;50.808;4.402;2023-08-21T10:29:26;12.73;;;1.77;;
41875;SDS011;27555;50.808;4.402;2023-08-21T10:32:02;9.77;;;2.13;;
41875;SDS011;27555;50.808;4.402;2023-08-21T10:34:33;4.18;;;1.50;;
41875;SDS011;27555;50.808;4.402;2023-08-21T10:37:03;5.20;;;1.38;;
41875;SDS011;27555;50.808;4.402;2023-08-21T10:39:31;6.38;;;1.50;;
41875;SDS011;27555;50.808;4.402;2023-08-21T10:54:53;5.90;;;2.22;;
41875;SDS011;27555;50.808;4.402;2023-08-21T10:57:25;8.98;;;1.67;;
41875;SDS011;27555;50.808;4.402;2023-08-21T11:04:48;7.75;;;1.35;;
41875;SDS011;27555;50.808;4.402;2023-08-21T11:07:14;8.18;;;1.38;;
41875;SDS011;27555;50.808;4.402;2023-08-21T11:09:40;4.55;;;1.15;;
41875;SDS011;27555;50.808;4.402;2023-08-21T11:12:07;4.43;;;0.85;;
41875;SDS011;27555;50.808;4.402;2023-08-21T11:14:40;4.07;;;0.90;;
41875;SDS011;27555;50.808;4.402;2023-08-21T11:17:07;7.47;;;1.52;;
41875;SDS011;27555;50.808;4.402;2023-08-21T11:19:33;3.13;;;0.95;;
41875;SDS011;27555;50.808;4.402;2023-08-21T11:22:00;5.28;;;1.27;;
41875;SDS011;27555;50.808;4.402;2023-08-21T11:24:30;4.70;;;1.02;;
41875;SDS011;27555;50.808;4.402;2023-08-21T11:27:07;3.83;;;0.85;;
41875;SDS011;27555;50.808;4.402;2023-08-21T11:29:38;2.10;;;0.70;;
41875;SDS011;27555;50.808;4.402;2023-08-21T11:32:08;6.40;;;1.00;;
41875;SDS011;27555;50.808;4.402;2023-08-21T11:34:35;6.13;;;1.20;;
41875;SDS011;27555;50.808;4.402;2023-08-21T11:37:01;5.28;;;1.15;;
41875;SDS011;27555;50.808;4.402;2023-08-21T11:39:38;4.60;;;1.10;;
41875;SDS011;27555;50.808;4.402;2023-08-21T11:42:12;4.32;;;0.90;;
41875;SDS011;27555;50.808;4.402;2023-08-21T11:44:45;3.55;;;1.00;;
41875;SDS011;27555;50.808;4.402;2023-08-21T11:47:16;7.25;;;0.95;;
41875;SDS011;27555;50.808;4.402;2023-08-21T11:49:44;3.90;;;1.17;;
41875;SDS011;27555;50.808;4.402;2023-08-21T11:52:13;5.43;;;1.27;;
41875;SDS011;27555;50.808;4.402;2023-08-21T11:54:39;6.60;;;1.42;;
41875;SDS011;27555;50.808;4.402;2023-08-21T11:57:09;4.20;;;1.10;;
41875;SDS011;27555;50.808;4.402;2023-08-21T11:59:38;3.60;;;0.75;;
41875;SDS011;27555;50.808;4.402;2023-08-21T12:02:10;3.78;;;1.50;;
41875;SDS011;27555;50.808;4.402;2023-08-21T12:04:40;4.00;;;1.42;;
41875;SDS011;27555;50.808;4.402;2023-08-21T12:07:06;1.98;;;0.88;;
41875;SDS011;27555;50.808;4.402;2023-08-21T12:09:32;4.13;;;1.10;;
41875;SDS011;27555;50.808;4.402;2023-08-21T12:11:57;6.53;;;1.50;;
41875;SDS011;27555;50.808;4.402;2023-08-21T12:14:23;3.78;;;1.13;;
41875;SDS011;27555;50.808;4.402;2023-08-21T12:16:49;4.72;;;0.98;;
41875;SDS011;27555;50.808;4.402;2023-08-21T12:19:14;9.98;;;1.80;;
41875;SDS011;27555;50.808;4.402;2023-08-21T12:21:40;3.83;;;1.10;;
41875;SDS011;27555;50.808;4.402;2023-08-21T12:24:06;6.15;;;1.23;;
41875;SDS011;27555;50.808;4.402;2023-08-21T12:26:35;10.52;;;1.77;;
41875;SDS011;27555;50.808;4.402;2023-08-21T12:29:00;3.47;;;1.35;;
41875;SDS011;27555;50.808;4.402;2023-08-21T12:31:33;7.32;;;1.42;;
41875;SDS011;27555;50.808;4.402;2023-08-21T12:33:59;5.15;;;1.30;;
41875;SDS011;27555;50.808;4.402;2023-08-21T12:36:24;3.03;;;0.80;;
41875;SDS011;27555;50.808;4.402;2023-08-21T12:38:50;5.78;;;1.55;;
41875;SDS011;27555;50.808;4.402;2023-08-21T12:41:16;3.42;;;1.13;;
41875;SDS011;27555;50.808;4.402;2023-08-21T12:43:41;2.85;;;0.98;;
41875;SDS011;27555;50.808;4.402;2023-08-21T12:46:07;5.30;;;1.60;;
41875;SDS011;27555;50.808;4.402;2023-08-21T12:48:33;6.80;;;1.27;;
41875;SDS011;27555;50.808;4.402;2023-08-21T12:50:59;9.45;;;0.95;;
41875;SDS011;27555;50.808;4.402;2023-08-21T12:53:24;3.30;;;0.80;;
41875;SDS011;27555;50.808;4.402;2023-08-21T12:55:50;4.47;;;1.38;;
41875;SDS011;27555;50.808;4.402;2023-08-21T12:58:15;4.65;;;1.45;;
41875;SDS011;27555;50.808;4.402;2023-08-21T13:00:41;2.80;;;0.90;;
41875;SDS011;27555;50.808;4.402;2023-08-21T13:03:07;4.00;;;0.98;;
41875;SDS011;27555;50.808;4.402;2023-08-21T13:05:33;4.60;;;1.13;;
41875;SDS011;27555;50.808;4.402;2023-08-21T13:07:59;9.32;;;1.25;;
41875;SDS011;27555;50.808;4.402;2023-08-21T13:10:25;3.70;;;1.10;;
41875;SDS011;27555;50.808;4.402;2023-08-21T13:12:51;6.10;;;1.30;;
41875;SDS011;27555;50.808;4.402;2023-08-21T13:15:16;7.13;;;1.00;;
41875;SDS011;27555;50.808;4.402;2023-08-21T13:17:42;2.63;;;0.93;;
41875;SDS011;27555;50.808;4.402;2023-08-21T13:20:08;5.47;;;0.90;;
41875;SDS011;27555;50.808;4.402;2023-08-21T13:22:50;14.18;;;1.88;;
41875;SDS011;27555;50.808;4.402;2023-08-21T13:25:20;4.75;;;1.10;;
41875;SDS011;27555;50.808;4.402;2023-08-21T13:27:49;4.30;;;0.85;;
41875;SDS011;27555;50.808;4.402;2023-08-21T13:30:15;3.28;;;1.30;;
41875;SDS011;27555;50.808;4.402;2023-08-21T13:32:42;6.20;;;1.17;;
41875;SDS011;27555;50.808;4.402;2023-08-21T13:35:08;5.82;;;1.10;;
41875;SDS011;27555;50.808;4.402;2023-08-21T13:37:34;6.10;;;1.33;;
41875;SDS011;27555;50.808;4.402;2023-08-21T13:42:39;5.90;;;1.17;;
41875;SDS011;27555;50.808;4.402;2023-08-21T13:47:40;8.05;;;1.02;;
41875;SDS011;27555;50.808;4.402;2023-08-21T13:50:07;3.95;;;1.40;;
41875;SDS011;27555;50.808;4.402;2023-08-21T13:52:34;3.85;;;1.33;;
41875;SDS011;27555;50.808;4.402;2023-08-21T13:55:01;3.33;;;1.13;;
41875;SDS011;27555;50.808;4.402;2023-08-21T13:57:27;2.33;;;0.98;;
41875;SDS011;27555;50.808;4.402;2023-08-21T13:59:53;3.92;;;1.25;;
41875;SDS011;27555;50.808;4.402;2023-08-21T14:02:19;8.15;;;1.20;;
41875;SDS011;27555;50.808;4.402;2023-08-21T14:04:45;2.97;;;0.93;;
41875;SDS011;27555;50.808;4.402;2023-08-21T14:07:11;7.05;;;1.42;;
41875;SDS011;27555;50.808;4.402;2023-08-21T14:09:38;2.33;;;1.00;;
41875;SDS011;27555;50.808;4.402;2023-08-21T14:12:03;4.63;;;1.48;;
41875;SDS011;27555;50.808;4.402;2023-08-21T14:14:29;2.72;;;0.88;;
41875;SDS011;27555;50.808;4.402;2023-08-21T14:16:55;35.60;;;2.40;;
41875;SDS011;27555;50.808;4.402;2023-08-21T14:19:22;2.70;;;1.05;;
41875;SDS011;27555;50.808;4.402;2023-08-21T14:21:49;6.75;;;1.05;;
41875;SDS011;27555;50.808;4.402;2023-08-21T14:24:14;5.03;;;1.13;;
41875;SDS011;27555;50.808;4.402;2023-08-21T14:26:40;2.55;;;0.60;;
41875;SDS011;27555;50.808;4.402;2023-08-21T14:29:07;2.88;;;1.05;;
41875;SDS011;27555;50.808;4.402;2023-08-21T14:31:33;2.83;;;0.88;;
41875;SDS011;27555;50.808;4.402;2023-08-21T14:33:59;9.93;;;0.80;;
41875;SDS011;27555;50.808;4.402;2023-08-21T14:36:26;3.53;;;1.08;;
41875;SDS011;27555;50.808;4.402;2023-08-21T14:38:51;3.83;;;0.80;;
41875;SDS011;27555;50.808;4.402;2023-08-21T14:41:17;5.80;;;0.95;;
41875;SDS011;27555;50.808;4.402;2023-08-21T14:43:43;3.15;;;0.82;;
41875;SDS011;27555;50.808;4.402;2023-08-21T14:46:09;1.40;;;0.55;;
41875;SDS011;27555;50.808;4.402;2023-08-21T14:48:35;1.27;;;0.60;;
41875;SDS011;27555;50.808;4.402;2023-08-21T14:51:01;3.88;;;0.80;;
41875;SDS011;27555;50.808;4.402;2023-08-21T14:53:27;4.90;;;0.82;;
41875;SDS011;27555;50.808;4.402;2023-08-21T14:55:53;1.95;;;0.80;;
41875;SDS011;27555;50.808;4.402;2023-08-21T14:58:19;7.78;;;0.50;;
41875;SDS011;27555;50.808;4.402;2023-08-21T15:00:44;1.38;;;0.50;;
41875;SDS011;27555;50.808;4.402;2023-08-21T15:03:10;8.57;;;1.00;;
41875;SDS011;27555;50.808;4.402;2023-08-21T15:05:36;2.63;;;0.63;;
41875;SDS011;27555;50.808;4.402;2023-08-21T15:08:01;3.63;;;0.60;;
41875;SDS011;27555;50.808;4.402;2023-08-21T15:10:27;3.33;;;0.75;;
41875;SDS011;27555;50.808;4.402;2023-08-21T15:12:53;2.72;;;0.90;;
41875;SDS011;27555;50.808;4.402;2023-08-21T15:15:19;2.45;;;0.80;;
41875;SDS011;27555;50.808;4.402;2023-08-21T15:17:48;5.43;;;1.02;;
41875;SDS011;27555;50.808;4.402;2023-08-21T15:20:13;3.03;;;0.70;;
41875;SDS011;27555;50.808;4.402;2023-08-21T15:22:41;3.47;;;0.77;;
41875;SDS011;27555;50.808;4.402;2023-08-21T15:25:07;3.25;;;0.65;;
41875;SDS011;27555;50.808;4.402;2023-08-21T15:27:34;2.08;;;0.90;;